sensor_id;sensor_type;location;lat;lon;timestamp;P1;durP1;ratioP1;P2;durP2;ratioP2
47617;SDS011;33336;36.728;-4.414;2022-09-06T00:00:25;3.10;;;1.00;;
47617;SDS011;33336;36.728;-4.414;2022-09-06T00:05:28;4.60;;;1.20;;
47617;SDS011;33336;36.728;-4.414;2022-09-06T00:10:33;2.20;;;0.98;;
47617;SDS011;33336;36.728;-4.414;2022-09-06T00:15:38;2.35;;;0.80;;
47617;SDS011;33336;36.728;-4.414;2022-09-06T00:20:42;6.32;;;1.08;;
47617;SDS011;33336;36.728;-4.414;2022-09-06T00:25:45;3.35;;;0.90;;
47617;SDS011;33336;36.728;-4.414;2022-09-06T00:30:49;4.15;;;1.25;;
47617;SDS011;33336;36.728;-4.414;2022-09-06T00:35:57;2.58;;;0.90;;
47617;SDS011;33336;36.728;-4.414;2022-09-06T00:41:02;5.65;;;1.27;;
47617;SDS011;33336;36.728;-4.414;2022-09-06T00:46:07;6.25;;;0.90;;
47617;SDS011;33336;36.728;-4.414;2022-09-06T00:56:15;5.68;;;1.20;;
47617;SDS011;33336;36.728;-4.414;2022-09-06T01:01:22;7.82;;;1.27;;
47617;SDS011;33336;36.728;-4.414;2022-09-06T01:06:27;5.90;;;1.23;;
47617;SDS011;33336;36.728;-4.414;2022-09-06T01:11:47;3.80;;;1.00;;
47617;SDS011;33336;36.728;-4.414;2022-09-06T01:17:01;4.40;;;1.10;;
47617;SDS011;33336;36.728;-4.414;2022-09-06T01:22:15;3.28;;;0.93;;
47617;SDS011;33336;36.728;-4.414;2022-09-06T01:27:40;5.10;;;1.15;;
47617;SDS011;33336;36.728;-4.414;2022-09-06T01:32:58;6.00;;;1.13;;
47617;SDS011;33336;36.728;-4.414;2022-09-06T01:38:04;2.92;;;1.25;;
47617;SDS011;33336;36.728;-4.414;2022-09-06T01:43:11;3.10;;;1.30;;
47617;SDS011;33336;36.728;-4.414;2022-09-06T01:48:21;2.13;;;0.90;;
47617;SDS011;33336;36.728;-4.414;2022-09-06T01:53:43;3.72;;;0.90;;
47617;SDS011;33336;36.728;-4.414;2022-09-06T01:59:04;7.18;;;1.33;;
47617;SDS011;33336;36.728;-4.414;2022-09-06T02:04:20;4.57;;;0.80;;
47617;SDS011;33336;36.728;-4.414;2022-09-06T02:09:27;6.88;;;1.08;;
47617;SDS011;33336;36.728;-4.414;2022-09-06T02:14:38;4.65;;;1.00;;
47617;SDS011;33336;36.728;-4.414;2022-09-06T02:19:44;5.40;;;1.40;;
47617;SDS011;33336;36.728;-4.414;2022-09-06T02:24:52;7.75;;;1.20;;
47617;SDS011;33336;36.728;-4.414;2022-09-06T02:29:58;2.17;;;1.17;;
47617;SDS011;33336;36.728;-4.414;2022-09-06T02:35:05;6.97;;;1.60;;
47617;SDS011;33336;36.728;-4.414;2022-09-06T02:40:12;4.93;;;1.50;;
47617;SDS011;33336;36.728;-4.414;2022-09-06T02:45:18;6.35;;;0.90;;
47617;SDS011;33336;36.728;-4.414;2022-09-06T02:50:20;6.70;;;1.15;;
47617;SDS011;33336;36.728;-4.414;2022-09-06T02:55:25;8.10;;;1.27;;
47617;SDS011;33336;36.728;-4.414;2022-09-06T03:00:29;5.15;;;0.85;;
47617;SDS011;33336;36.728;-4.414;2022-09-06T03:05:33;5.07;;;1.30;;
47617;SDS011;33336;36.728;-4.414;2022-09-06T03:10:36;2.65;;;1.02;;
47617;SDS011;33336;36.728;-4.414;2022-09-06T03:15:41;6.57;;;1.30;;
47617;SDS011;33336;36.728;-4.414;2022-09-06T03:20:44;3.15;;;1.27;;
47617;SDS011;33336;36.728;-4.414;2022-09-06T03:25:50;3.60;;;1.00;;
47617;SDS011;33336;36.728;-4.414;2022-09-06T03:30:55;6.07;;;1.27;;
47617;SDS011;33336;36.728;-4.414;2022-09-06T03:36:00;2.95;;;1.13;;
47617;SDS011;33336;36.728;-4.414;2022-09-06T03:41:04;2.50;;;0.88;;
47617;SDS011;33336;36.728;-4.414;2022-09-06T03:46:09;1.98;;;0.93;;
47617;SDS011;33336;36.728;-4.414;2022-09-06T03:51:12;2.50;;;0.90;;
47617;SDS011;33336;36.728;-4.414;2022-09-06T03:56:16;4.90;;;1.20;;
47617;SDS011;33336;36.728;-4.414;2022-09-06T04:01:20;5.60;;;1.27;;
47617;SDS011;33336;36.728;-4.414;2022-09-06T04:06:24;3.45;;;1.30;;
47617;SDS011;33336;36.728;-4.414;2022-09-06T04:11:27;2.97;;;1.30;;
47617;SDS011;33336;36.728;-4.414;2022-09-06T04:16:32;4.72;;;1.33;;
47617;SDS011;33336;36.728;-4.414;2022-09-06T04:21:35;7.75;;;1.10;;
47617;SDS011;33336;36.728;-4.414;2022-09-06T04:26:39;2.63;;;1.00;;
47617;SDS011;33336;36.728;-4.414;2022-09-06T04:31:43;6.43;;;1.42;;
47617;SDS011;33336;36.728;-4.414;2022-09-06T04:36:47;3.53;;;1.15;;
47617;SDS011;33336;36.728;-4.414;2022-09-06T04:41:50;2.63;;;1.10;;
47617;SDS011;33336;36.728;-4.414;2022-09-06T04:47:03;3.63;;;1.40;;
47617;SDS011;33336;36.728;-4.414;2022-09-06T04:52:07;1.65;;;1.40;;
47617;SDS011;33336;36.728;-4.414;2022-09-06T04:57:12;4.05;;;1.42;;
47617;SDS011;33336;36.728;-4.414;2022-09-06T05:02:16;6.20;;;1.30;;
47617;SDS011;33336;36.728;-4.414;2022-09-06T05:07:19;6.32;;;1.42;;
47617;SDS011;33336;36.728;-4.414;2022-09-06T05:12:22;10.82;;;1.58;;
47617;SDS011;33336;36.728;-4.414;2022-09-06T05:17:26;5.70;;;1.40;;
47617;SDS011;33336;36.728;-4.414;2022-09-06T05:22:29;6.13;;;1.95;;
47617;SDS011;33336;36.728;-4.414;2022-09-06T05:27:33;7.65;;;1.48;;
47617;SDS011;33336;36.728;-4.414;2022-09-06T05:32:37;5.07;;;1.70;;
47617;SDS011;33336;36.728;-4.414;2022-09-06T05:37:41;4.07;;;1.92;;
47617;SDS011;33336;36.728;-4.414;2022-09-06T05:42:44;7.50;;;2.15;;
47617;SDS011;33336;36.728;-4.414;2022-09-06T05:47:48;3.17;;;1.70;;
47617;SDS011;33336;36.728;-4.414;2022-09-06T05:52:52;3.10;;;1.90;;
47617;SDS011;33336;36.728;-4.414;2022-09-06T05:57:55;5.25;;;2.25;;
47617;SDS011;33336;36.728;-4.414;2022-09-06T06:02:59;4.70;;;2.13;;
47617;SDS011;33336;36.728;-4.414;2022-09-06T06:08:03;7.60;;;2.53;;
47617;SDS011;33336;36.728;-4.414;2022-09-06T06:13:06;6.57;;;2.03;;
47617;SDS011;33336;36.728;-4.414;2022-09-06T06:18:10;11.57;;;2.80;;
47617;SDS011;33336;36.728;-4.414;2022-09-06T06:23:13;8.93;;;2.78;;
47617;SDS011;33336;36.728;-4.414;2022-09-06T06:28:16;9.45;;;2.72;;
47617;SDS011;33336;36.728;-4.414;2022-09-06T06:33:20;7.05;;;2.60;;
47617;SDS011;33336;36.728;-4.414;2022-09-06T06:38:28;8.65;;;2.83;;
47617;SDS011;33336;36.728;-4.414;2022-09-06T06:43:32;4.07;;;2.33;;
47617;SDS011;33336;36.728;-4.414;2022-09-06T06:48:39;7.93;;;2.53;;
47617;SDS011;33336;36.728;-4.414;2022-09-06T06:53:44;13.33;;;3.17;;
47617;SDS011;33336;36.728;-4.414;2022-09-06T06:58:48;10.23;;;3.53;;
47617;SDS011;33336;36.728;-4.414;2022-09-06T07:03:53;10.68;;;3.63;;
47617;SDS011;33336;36.728;-4.414;2022-09-06T07:08:57;7.93;;;3.30;;
47617;SDS011;33336;36.728;-4.414;2022-09-06T07:14:00;8.70;;;3.10;;
47617;SDS011;33336;36.728;-4.414;2022-09-06T07:19:05;5.72;;;2.28;;
47617;SDS011;33336;36.728;-4.414;2022-09-06T07:24:08;5.85;;;3.00;;
47617;SDS011;33336;36.728;-4.414;2022-09-06T07:29:12;15.05;;;3.00;;
47617;SDS011;33336;36.728;-4.414;2022-09-06T07:34:16;4.43;;;2.58;;
47617;SDS011;33336;36.728;-4.414;2022-09-06T07:39:20;8.52;;;3.42;;
47617;SDS011;33336;36.728;-4.414;2022-09-06T07:44:23;9.45;;;3.25;;
47617;SDS011;33336;36.728;-4.414;2022-09-06T07:49:30;10.60;;;3.35;;
47617;SDS011;33336;36.728;-4.414;2022-09-06T07:54:33;10.73;;;3.00;;
47617;SDS011;33336;36.728;-4.414;2022-09-06T07:59:37;10.48;;;2.47;;
47617;SDS011;33336;36.728;-4.414;2022-09-06T08:04:41;12.85;;;2.35;;
47617;SDS011;33336;36.728;-4.414;2022-09-06T08:09:44;4.10;;;2.00;;
47617;SDS011;33336;36.728;-4.414;2022-09-06T08:14:46;5.32;;;2.45;;
47617;SDS011;33336;36.728;-4.414;2022-09-06T08:19:51;7.15;;;2.13;;
47617;SDS011;33336;36.728;-4.414;2022-09-06T08:24:54;12.32;;;2.45;;
47617;SDS011;33336;36.728;-4.414;2022-09-06T08:29:57;8.52;;;2.05;;
47617;SDS011;33336;36.728;-4.414;2022-09-06T08:35:01;9.13;;;2.80;;
47617;SDS011;33336;36.728;-4.414;2022-09-06T08:40:05;7.78;;;2.30;;
47617;SDS011;33336;36.728;-4.414;2022-09-06T08:45:08;3.58;;;1.88;;
47617;SDS011;33336;36.728;-4.414;2022-09-06T08:50:18;8.18;;;2.22;;
47617;SDS011;33336;36.728;-4.414;2022-09-06T08:55:27;5.85;;;2.30;;
47617;SDS011;33336;36.728;-4.414;2022-09-06T09:00:37;4.53;;;2.30;;
47617;SDS011;33336;36.728;-4.414;2022-09-06T09:05:43;8.40;;;3.05;;
47617;SDS011;33336;36.728;-4.414;2022-09-06T09:10:51;4.15;;;2.40;;
47617;SDS011;33336;36.728;-4.414;2022-09-06T09:15:58;5.68;;;1.85;;
47617;SDS011;33336;36.728;-4.414;2022-09-06T09:21:03;7.90;;;2.50;;
47617;SDS011;33336;36.728;-4.414;2022-09-06T09:26:08;10.23;;;2.33;;
47617;SDS011;33336;36.728;-4.414;2022-09-06T09:31:14;4.53;;;2.20;;
47617;SDS011;33336;36.728;-4.414;2022-09-06T09:36:35;6.82;;;2.70;;
47617;SDS011;33336;36.728;-4.414;2022-09-06T09:41:40;11.05;;;2.53;;
47617;SDS011;33336;36.728;-4.414;2022-09-06T09:46:43;13.05;;;2.65;;
47617;SDS011;33336;36.728;-4.414;2022-09-06T09:52:02;9.85;;;3.05;;
47617;SDS011;33336;36.728;-4.414;2022-09-06T09:57:07;8.30;;;2.58;;
47617;SDS011;33336;36.728;-4.414;2022-09-06T10:02:16;10.52;;;2.47;;
47617;SDS011;33336;36.728;-4.414;2022-09-06T10:07:23;5.82;;;1.95;;
47617;SDS011;33336;36.728;-4.414;2022-09-06T10:12:28;4.28;;;2.60;;
47617;SDS011;33336;36.728;-4.414;2022-09-06T10:17:32;6.55;;;2.38;;
47617;SDS011;33336;36.728;-4.414;2022-09-06T10:22:45;11.40;;;2.50;;
47617;SDS011;33336;36.728;-4.414;2022-09-06T10:28:04;6.67;;;2.50;;
47617;SDS011;33336;36.728;-4.414;2022-09-06T10:33:29;9.93;;;2.40;;
47617;SDS011;33336;36.728;-4.414;2022-09-06T10:38:44;6.25;;;2.10;;
47617;SDS011;33336;36.728;-4.414;2022-09-06T10:43:56;9.65;;;1.90;;
47617;SDS011;33336;36.728;-4.414;2022-09-06T10:49:07;13.07;;;1.88;;
47617;SDS011;33336;36.728;-4.414;2022-09-06T10:54:18;7.90;;;1.90;;
47617;SDS011;33336;36.728;-4.414;2022-09-06T10:59:24;13.40;;;2.47;;
47617;SDS011;33336;36.728;-4.414;2022-09-06T11:04:34;11.13;;;1.90;;
47617;SDS011;33336;36.728;-4.414;2022-09-06T11:09:40;8.32;;;1.88;;
47617;SDS011;33336;36.728;-4.414;2022-09-06T11:14:48;9.68;;;2.65;;
47617;SDS011;33336;36.728;-4.414;2022-09-06T11:19:52;5.95;;;1.92;;
47617;SDS011;33336;36.728;-4.414;2022-09-06T11:25:14;7.82;;;2.65;;
47617;SDS011;33336;36.728;-4.414;2022-09-06T11:30:34;5.95;;;1.65;;
47617;SDS011;33336;36.728;-4.414;2022-09-06T11:35:38;5.15;;;1.60;;
47617;SDS011;33336;36.728;-4.414;2022-09-06T11:40:45;7.45;;;1.58;;
47617;SDS011;33336;36.728;-4.414;2022-09-06T11:45:50;13.10;;;2.80;;
47617;SDS011;33336;36.728;-4.414;2022-09-06T11:50:57;6.82;;;2.17;;
47617;SDS011;33336;36.728;-4.414;2022-09-06T11:56:15;5.97;;;1.42;;
47617;SDS011;33336;36.728;-4.414;2022-09-06T12:01:33;8.70;;;1.63;;
47617;SDS011;33336;36.728;-4.414;2022-09-06T12:06:39;5.70;;;1.23;;
47617;SDS011;33336;36.728;-4.414;2022-09-06T12:11:44;9.45;;;1.38;;
47617;SDS011;33336;36.728;-4.414;2022-09-06T12:22:50;7.78;;;1.80;;
47617;SDS011;33336;36.728;-4.414;2022-09-06T12:27:56;5.82;;;1.63;;
47617;SDS011;33336;36.728;-4.414;2022-09-06T12:33:01;7.97;;;1.65;;
47617;SDS011;33336;36.728;-4.414;2022-09-06T12:38:10;4.80;;;1.40;;
47617;SDS011;33336;36.728;-4.414;2022-09-06T12:43:17;5.88;;;1.83;;
47617;SDS011;33336;36.728;-4.414;2022-09-06T12:48:25;5.40;;;2.27;;
47617;SDS011;33336;36.728;-4.414;2022-09-06T12:53:29;6.45;;;2.78;;
47617;SDS011;33336;36.728;-4.414;2022-09-06T12:58:35;7.65;;;1.70;;
47617;SDS011;33336;36.728;-4.414;2022-09-06T13:03:39;4.57;;;1.70;;
47617;SDS011;33336;36.728;-4.414;2022-09-06T13:08:46;4.13;;;1.00;;
47617;SDS011;33336;36.728;-4.414;2022-09-06T13:13:54;6.13;;;1.30;;
47617;SDS011;33336;36.728;-4.414;2022-09-06T13:19:09;4.50;;;1.25;;
47617;SDS011;33336;36.728;-4.414;2022-09-06T13:29:28;5.57;;;1.38;;
47617;SDS011;33336;36.728;-4.414;2022-09-06T13:34:32;7.43;;;2.10;;
47617;SDS011;33336;36.728;-4.414;2022-09-06T13:39:37;7.15;;;1.75;;
47617;SDS011;33336;36.728;-4.414;2022-09-06T13:44:42;5.95;;;1.60;;
47617;SDS011;33336;36.728;-4.414;2022-09-06T13:49:46;6.75;;;1.50;;
47617;SDS011;33336;36.728;-4.414;2022-09-06T13:54:49;8.80;;;1.70;;
47617;SDS011;33336;36.728;-4.414;2022-09-06T13:59:53;3.97;;;2.10;;
47617;SDS011;33336;36.728;-4.414;2022-09-06T14:04:56;5.20;;;1.60;;
47617;SDS011;33336;36.728;-4.414;2022-09-06T14:10:00;9.43;;;1.67;;
47617;SDS011;33336;36.728;-4.414;2022-09-06T14:15:04;5.35;;;2.08;;
47617;SDS011;33336;36.728;-4.414;2022-09-06T14:20:09;4.45;;;1.40;;
47617;SDS011;33336;36.728;-4.414;2022-09-06T14:25:12;8.02;;;2.05;;
47617;SDS011;33336;36.728;-4.414;2022-09-06T14:30:16;12.80;;;2.25;;
47617;SDS011;33336;36.728;-4.414;2022-09-06T14:35:19;3.97;;;1.80;;
47617;SDS011;33336;36.728;-4.414;2022-09-06T14:40:23;5.47;;;1.90;;
47617;SDS011;33336;36.728;-4.414;2022-09-06T14:45:27;7.28;;;2.03;;
47617;SDS011;33336;36.728;-4.414;2022-09-06T14:50:31;9.48;;;1.77;;
47617;SDS011;33336;36.728;-4.414;2022-09-06T14:55:34;4.28;;;1.55;;
47617;SDS011;33336;36.728;-4.414;2022-09-06T15:00:40;7.93;;;2.38;;
47617;SDS011;33336;36.728;-4.414;2022-09-06T15:05:45;7.18;;;2.05;;
47617;SDS011;33336;36.728;-4.414;2022-09-06T15:10:51;5.88;;;1.95;;
47617;SDS011;33336;36.728;-4.414;2022-09-06T15:15:55;9.88;;;1.95;;
47617;SDS011;33336;36.728;-4.414;2022-09-06T15:21:06;5.78;;;2.28;;
47617;SDS011;33336;36.728;-4.414;2022-09-06T15:26:10;10.07;;;2.38;;
47617;SDS011;33336;36.728;-4.414;2022-09-06T15:31:15;5.60;;;2.50;;
47617;SDS011;33336;36.728;-4.414;2022-09-06T15:36:19;11.73;;;2.67;;
47617;SDS011;33336;36.728;-4.414;2022-09-06T15:41:23;6.07;;;2.13;;
47617;SDS011;33336;36.728;-4.414;2022-09-06T15:46:42;5.50;;;2.00;;
47617;SDS011;33336;36.728;-4.414;2022-09-06T15:51:48;9.30;;;2.47;;
47617;SDS011;33336;36.728;-4.414;2022-09-06T15:56:50;5.03;;;1.83;;
47617;SDS011;33336;36.728;-4.414;2022-09-06T16:01:59;23.35;;;3.83;;
47617;SDS011;33336;36.728;-4.414;2022-09-06T16:07:03;17.23;;;3.15;;
47617;SDS011;33336;36.728;-4.414;2022-09-06T16:12:08;8.10;;;1.83;;
47617;SDS011;33336;36.728;-4.414;2022-09-06T16:17:13;32.13;;;4.70;;
47617;SDS011;33336;36.728;-4.414;2022-09-06T16:22:18;7.55;;;2.10;;
47617;SDS011;33336;36.728;-4.414;2022-09-06T16:27:22;10.63;;;2.10;;
47617;SDS011;33336;36.728;-4.414;2022-09-06T16:32:30;9.10;;;1.92;;
47617;SDS011;33336;36.728;-4.414;2022-09-06T16:37:34;5.55;;;1.70;;
47617;SDS011;33336;36.728;-4.414;2022-09-06T16:42:38;4.90;;;2.05;;
47617;SDS011;33336;36.728;-4.414;2022-09-06T16:47:43;8.02;;;2.55;;
47617;SDS011;33336;36.728;-4.414;2022-09-06T16:52:48;5.95;;;1.65;;
47617;SDS011;33336;36.728;-4.414;2022-09-06T16:57:52;7.38;;;1.77;;
47617;SDS011;33336;36.728;-4.414;2022-09-06T17:02:57;6.07;;;1.73;;
47617;SDS011;33336;36.728;-4.414;2022-09-06T17:08:01;5.32;;;1.48;;
47617;SDS011;33336;36.728;-4.414;2022-09-06T17:13:06;6.30;;;2.20;;
47617;SDS011;33336;36.728;-4.414;2022-09-06T17:18:11;8.35;;;2.13;;
47617;SDS011;33336;36.728;-4.414;2022-09-06T17:23:15;7.18;;;1.70;;
47617;SDS011;33336;36.728;-4.414;2022-09-06T17:28:19;10.07;;;2.65;;
47617;SDS011;33336;36.728;-4.414;2022-09-06T17:33:25;13.50;;;3.07;;
47617;SDS011;33336;36.728;-4.414;2022-09-06T17:38:30;17.90;;;2.70;;
47617;SDS011;33336;36.728;-4.414;2022-09-06T17:43:35;11.47;;;3.53;;
47617;SDS011;33336;36.728;-4.414;2022-09-06T17:48:43;10.35;;;2.83;;
47617;SDS011;33336;36.728;-4.414;2022-09-06T17:53:47;8.23;;;2.33;;
47617;SDS011;33336;36.728;-4.414;2022-09-06T17:58:59;9.70;;;2.38;;
47617;SDS011;33336;36.728;-4.414;2022-09-06T18:04:07;13.73;;;2.85;;
47617;SDS011;33336;36.728;-4.414;2022-09-06T18:09:12;11.13;;;2.95;;
47617;SDS011;33336;36.728;-4.414;2022-09-06T18:14:18;7.40;;;2.63;;
47617;SDS011;33336;36.728;-4.414;2022-09-06T18:19:24;9.33;;;2.57;;
47617;SDS011;33336;36.728;-4.414;2022-09-06T18:24:29;9.90;;;2.97;;
47617;SDS011;33336;36.728;-4.414;2022-09-06T18:29:33;10.95;;;2.88;;
47617;SDS011;33336;36.728;-4.414;2022-09-06T18:34:39;11.43;;;3.05;;
47617;SDS011;33336;36.728;-4.414;2022-09-06T18:39:44;11.00;;;2.92;;
47617;SDS011;33336;36.728;-4.414;2022-09-06T18:44:49;21.67;;;4.35;;
47617;SDS011;33336;36.728;-4.414;2022-09-06T18:49:54;16.65;;;3.42;;
47617;SDS011;33336;36.728;-4.414;2022-09-06T18:54:59;12.55;;;3.55;;
47617;SDS011;33336;36.728;-4.414;2022-09-06T19:00:04;11.93;;;3.73;;
47617;SDS011;33336;36.728;-4.414;2022-09-06T19:05:11;12.57;;;4.00;;
47617;SDS011;33336;36.728;-4.414;2022-09-06T19:10:15;17.00;;;4.88;;
47617;SDS011;33336;36.728;-4.414;2022-09-06T19:15:20;11.90;;;3.40;;
47617;SDS011;33336;36.728;-4.414;2022-09-06T19:20:25;12.27;;;4.47;;
47617;SDS011;33336;36.728;-4.414;2022-09-06T19:25:30;18.13;;;4.27;;
47617;SDS011;33336;36.728;-4.414;2022-09-06T19:30:34;10.93;;;3.72;;
47617;SDS011;33336;36.728;-4.414;2022-09-06T19:35:41;18.80;;;4.50;;
47617;SDS011;33336;36.728;-4.414;2022-09-06T19:40:46;15.80;;;5.00;;
47617;SDS011;33336;36.728;-4.414;2022-09-06T19:45:49;13.73;;;4.47;;
47617;SDS011;33336;36.728;-4.414;2022-09-06T19:50:54;22.48;;;5.70;;
47617;SDS011;33336;36.728;-4.414;2022-09-06T19:56:07;13.38;;;6.18;;
47617;SDS011;33336;36.728;-4.414;2022-09-06T20:01:11;21.02;;;6.60;;
47617;SDS011;33336;36.728;-4.414;2022-09-06T20:06:19;18.58;;;5.72;;
47617;SDS011;33336;36.728;-4.414;2022-09-06T20:11:24;18.55;;;6.72;;
47617;SDS011;33336;36.728;-4.414;2022-09-06T20:16:29;12.95;;;5.22;;
47617;SDS011;33336;36.728;-4.414;2022-09-06T20:21:33;13.60;;;5.68;;
47617;SDS011;33336;36.728;-4.414;2022-09-06T20:26:36;18.42;;;6.97;;
47617;SDS011;33336;36.728;-4.414;2022-09-06T20:31:40;14.27;;;5.07;;
47617;SDS011;33336;36.728;-4.414;2022-09-06T20:36:44;13.65;;;4.30;;
47617;SDS011;33336;36.728;-4.414;2022-09-06T20:41:47;13.95;;;4.45;;
47617;SDS011;33336;36.728;-4.414;2022-09-06T20:46:50;20.05;;;5.78;;
47617;SDS011;33336;36.728;-4.414;2022-09-06T20:51:55;13.60;;;4.75;;
47617;SDS011;33336;36.728;-4.414;2022-09-06T20:56:58;15.85;;;5.20;;
47617;SDS011;33336;36.728;-4.414;2022-09-06T21:02:01;22.60;;;6.00;;
47617;SDS011;33336;36.728;-4.414;2022-09-06T21:07:07;22.55;;;6.10;;
47617;SDS011;33336;36.728;-4.414;2022-09-06T21:12:10;15.07;;;4.63;;
47617;SDS011;33336;36.728;-4.414;2022-09-06T21:17:12;14.50;;;5.05;;
47617;SDS011;33336;36.728;-4.414;2022-09-06T21:22:17;12.15;;;4.45;;
47617;SDS011;33336;36.728;-4.414;2022-09-06T21:27:19;26.55;;;6.25;;
47617;SDS011;33336;36.728;-4.414;2022-09-06T21:32:22;19.90;;;5.90;;
47617;SDS011;33336;36.728;-4.414;2022-09-06T21:37:28;21.70;;;5.15;;
47617;SDS011;33336;36.728;-4.414;2022-09-06T21:42:31;9.88;;;3.97;;
47617;SDS011;33336;36.728;-4.414;2022-09-06T21:47:34;17.45;;;4.20;;
47617;SDS011;33336;36.728;-4.414;2022-09-06T21:52:39;11.07;;;4.85;;
47617;SDS011;33336;36.728;-4.414;2022-09-06T21:57:42;14.15;;;5.18;;
47617;SDS011;33336;36.728;-4.414;2022-09-06T22:02:45;12.15;;;5.50;;
47617;SDS011;33336;36.728;-4.414;2022-09-06T22:07:51;15.63;;;4.35;;
47617;SDS011;33336;36.728;-4.414;2022-09-06T22:12:54;9.60;;;3.97;;
47617;SDS011;33336;36.728;-4.414;2022-09-06T22:17:58;10.48;;;2.60;;
47617;SDS011;33336;36.728;-4.414;2022-09-06T22:23:06;10.77;;;2.70;;
47617;SDS011;33336;36.728;-4.414;2022-09-06T22:28:10;4.93;;;2.17;;
47617;SDS011;33336;36.728;-4.414;2022-09-06T22:33:13;5.88;;;1.98;;
47617;SDS011;33336;36.728;-4.414;2022-09-06T22:38:18;7.53;;;1.92;;
47617;SDS011;33336;36.728;-4.414;2022-09-06T22:43:22;6.22;;;1.55;;
47617;SDS011;33336;36.728;-4.414;2022-09-06T22:48:26;9.65;;;1.75;;
47617;SDS011;33336;36.728;-4.414;2022-09-06T22:53:30;13.38;;;1.83;;
47617;SDS011;33336;36.728;-4.414;2022-09-06T22:58:34;7.60;;;1.63;;
47617;SDS011;33336;36.728;-4.414;2022-09-06T23:03:37;8.00;;;1.52;;
47617;SDS011;33336;36.728;-4.414;2022-09-06T23:08:43;3.35;;;1.23;;
47617;SDS011;33336;36.728;-4.414;2022-09-06T23:13:46;9.20;;;2.00;;
47617;SDS011;33336;36.728;-4.414;2022-09-06T23:18:49;7.85;;;2.55;;
47617;SDS011;33336;36.728;-4.414;2022-09-06T23:23:54;14.13;;;3.28;;
47617;SDS011;33336;36.728;-4.414;2022-09-06T23:28:57;17.05;;;3.60;;
47617;SDS011;33336;36.728;-4.414;2022-09-06T23:34:01;16.63;;;4.93;;
47617;SDS011;33336;36.728;-4.414;2022-09-06T23:39:06;18.10;;;4.38;;
47617;SDS011;33336;36.728;-4.414;2022-09-06T23:44:09;13.43;;;4.10;;
47617;SDS011;33336;36.728;-4.414;2022-09-06T23:49:12;14.50;;;3.75;;
47617;SDS011;33336;36.728;-4.414;2022-09-06T23:54:17;14.98;;;3.83;;
47617;SDS011;33336;36.728;-4.414;2022-09-06T23:59:20;15.27;;;3.42;;
